sensor_id;sensor_type;location;lat;lon;timestamp;P1;durP1;ratioP1;P2;durP2;ratioP2
14141;SDS011;7151;52.246;4.820;2023-11-22T00:00:19;19.50;;;9.57;;
14141;SDS011;7151;52.246;4.820;2023-11-22T00:02:45;15.60;;;8.83;;
14141;SDS011;7151;52.246;4.820;2023-11-22T00:05:12;18.80;;;8.07;;
14141;SDS011;7151;52.246;4.820;2023-11-22T00:07:37;18.40;;;9.00;;
14141;SDS011;7151;52.246;4.820;2023-11-22T00:10:03;12.27;;;7.53;;
14141;SDS011;7151;52.246;4.820;2023-11-22T00:12:30;8.83;;;6.93;;
14141;SDS011;7151;52.246;4.820;2023-11-22T00:15:01;11.20;;;6.73;;
14141;SDS011;7151;52.246;4.820;2023-11-22T00:17:31;7.60;;;4.83;;
14141;SDS011;7151;52.246;4.820;2023-11-22T00:19:57;10.03;;;5.57;;
14141;SDS011;7151;52.246;4.820;2023-11-22T00:22:25;7.07;;;4.23;;
14141;SDS011;7151;52.246;4.820;2023-11-22T00:24:52;7.80;;;5.53;;
14141;SDS011;7151;52.246;4.820;2023-11-22T00:27:18;6.93;;;4.50;;
14141;SDS011;7151;52.246;4.820;2023-11-22T00:29:44;6.50;;;4.13;;
14141;SDS011;7151;52.246;4.820;2023-11-22T00:32:10;5.50;;;3.63;;
14141;SDS011;7151;52.246;4.820;2023-11-22T00:34:36;6.37;;;4.03;;
14141;SDS011;7151;52.246;4.820;2023-11-22T00:37:02;9.67;;;4.07;;
14141;SDS011;7151;52.246;4.820;2023-11-22T00:39:27;6.43;;;3.73;;
14141;SDS011;7151;52.246;4.820;2023-11-22T00:41:53;4.50;;;3.47;;
14141;SDS011;7151;52.246;4.820;2023-11-22T00:44:20;5.90;;;3.70;;
14141;SDS011;7151;52.246;4.820;2023-11-22T00:46:46;5.17;;;3.73;;
14141;SDS011;7151;52.246;4.820;2023-11-22T00:49:11;5.50;;;4.03;;
14141;SDS011;7151;52.246;4.820;2023-11-22T00:51:38;7.13;;;3.60;;
14141;SDS011;7151;52.246;4.820;2023-11-22T00:54:03;7.67;;;4.00;;
14141;SDS011;7151;52.246;4.820;2023-11-22T00:56:30;6.17;;;3.97;;
14141;SDS011;7151;52.246;4.820;2023-11-22T00:58:55;5.60;;;3.60;;
14141;SDS011;7151;52.246;4.820;2023-11-22T01:01:24;6.07;;;3.80;;
14141;SDS011;7151;52.246;4.820;2023-11-22T01:03:50;5.93;;;3.60;;
14141;SDS011;7151;52.246;4.820;2023-11-22T01:06:16;6.10;;;3.77;;
14141;SDS011;7151;52.246;4.820;2023-11-22T01:08:43;5.47;;;4.13;;
14141;SDS011;7151;52.246;4.820;2023-11-22T01:11:08;3.97;;;3.17;;
14141;SDS011;7151;52.246;4.820;2023-11-22T01:13:34;5.13;;;3.40;;
14141;SDS011;7151;52.246;4.820;2023-11-22T01:16:06;5.00;;;3.20;;
14141;SDS011;7151;52.246;4.820;2023-11-22T01:18:32;5.87;;;3.67;;
14141;SDS011;7151;52.246;4.820;2023-11-22T01:20:57;7.00;;;3.33;;
14141;SDS011;7151;52.246;4.820;2023-11-22T01:23:23;5.07;;;3.50;;
14141;SDS011;7151;52.246;4.820;2023-11-22T01:25:48;4.20;;;3.17;;
14141;SDS011;7151;52.246;4.820;2023-11-22T01:28:15;5.63;;;3.70;;
14141;SDS011;7151;52.246;4.820;2023-11-22T01:30:42;6.53;;;3.70;;
14141;SDS011;7151;52.246;4.820;2023-11-22T01:33:10;6.17;;;3.90;;
14141;SDS011;7151;52.246;4.820;2023-11-22T01:35:36;4.27;;;2.97;;
14141;SDS011;7151;52.246;4.820;2023-11-22T01:38:03;5.77;;;4.67;;
14141;SDS011;7151;52.246;4.820;2023-11-22T01:40:29;6.43;;;3.57;;
14141;SDS011;7151;52.246;4.820;2023-11-22T01:42:56;4.63;;;3.47;;
14141;SDS011;7151;52.246;4.820;2023-11-22T01:45:22;5.60;;;3.47;;
14141;SDS011;7151;52.246;4.820;2023-11-22T01:47:48;4.77;;;3.30;;
14141;SDS011;7151;52.246;4.820;2023-11-22T01:50:14;5.37;;;3.60;;
14141;SDS011;7151;52.246;4.820;2023-11-22T01:52:39;4.83;;;3.53;;
14141;SDS011;7151;52.246;4.820;2023-11-22T01:55:05;4.70;;;3.07;;
14141;SDS011;7151;52.246;4.820;2023-11-22T01:57:34;3.73;;;3.27;;
14141;SDS011;7151;52.246;4.820;2023-11-22T02:00:03;6.30;;;3.97;;
14141;SDS011;7151;52.246;4.820;2023-11-22T02:02:29;5.27;;;3.70;;
14141;SDS011;7151;52.246;4.820;2023-11-22T02:04:56;6.57;;;3.00;;
14141;SDS011;7151;52.246;4.820;2023-11-22T02:07:22;4.37;;;3.47;;
14141;SDS011;7151;52.246;4.820;2023-11-22T02:09:48;8.67;;;4.00;;
14141;SDS011;7151;52.246;4.820;2023-11-22T02:12:14;5.83;;;3.50;;
14141;SDS011;7151;52.246;4.820;2023-11-22T02:14:40;5.83;;;3.07;;
14141;SDS011;7151;52.246;4.820;2023-11-22T02:17:05;5.77;;;2.93;;
14141;SDS011;7151;52.246;4.820;2023-11-22T02:19:31;6.33;;;3.80;;
14141;SDS011;7151;52.246;4.820;2023-11-22T02:21:57;5.77;;;3.40;;
14141;SDS011;7151;52.246;4.820;2023-11-22T02:24:22;5.73;;;3.50;;
14141;SDS011;7151;52.246;4.820;2023-11-22T02:26:48;4.93;;;3.30;;
14141;SDS011;7151;52.246;4.820;2023-11-22T02:29:13;4.67;;;3.10;;
14141;SDS011;7151;52.246;4.820;2023-11-22T02:31:41;4.60;;;2.97;;
14141;SDS011;7151;52.246;4.820;2023-11-22T02:34:07;6.17;;;3.57;;
14141;SDS011;7151;52.246;4.820;2023-11-22T02:36:33;7.50;;;3.60;;
14141;SDS011;7151;52.246;4.820;2023-11-22T02:38:59;6.13;;;3.60;;
14141;SDS011;7151;52.246;4.820;2023-11-22T02:41:26;6.07;;;4.10;;
14141;SDS011;7151;52.246;4.820;2023-11-22T02:43:54;6.10;;;3.40;;
14141;SDS011;7151;52.246;4.820;2023-11-22T02:46:20;4.63;;;3.93;;
14141;SDS011;7151;52.246;4.820;2023-11-22T02:48:46;6.43;;;3.90;;
14141;SDS011;7151;52.246;4.820;2023-11-22T02:51:11;6.10;;;3.53;;
14141;SDS011;7151;52.246;4.820;2023-11-22T02:53:38;5.40;;;3.43;;
14141;SDS011;7151;52.246;4.820;2023-11-22T02:56:08;4.40;;;3.80;;
14141;SDS011;7151;52.246;4.820;2023-11-22T02:58:34;5.43;;;3.60;;
14141;SDS011;7151;52.246;4.820;2023-11-22T03:01:00;6.37;;;3.70;;
14141;SDS011;7151;52.246;4.820;2023-11-22T03:03:26;5.70;;;3.73;;
14141;SDS011;7151;52.246;4.820;2023-11-22T03:05:52;4.43;;;3.20;;
14141;SDS011;7151;52.246;4.820;2023-11-22T03:08:18;6.63;;;4.03;;
14141;SDS011;7151;52.246;4.820;2023-11-22T03:10:43;6.00;;;3.13;;
14141;SDS011;7151;52.246;4.820;2023-11-22T03:13:09;4.47;;;3.13;;
14141;SDS011;7151;52.246;4.820;2023-11-22T03:15:35;4.60;;;3.23;;
14141;SDS011;7151;52.246;4.820;2023-11-22T03:18:01;5.53;;;3.83;;
14141;SDS011;7151;52.246;4.820;2023-11-22T03:20:28;4.57;;;2.90;;
14141;SDS011;7151;52.246;4.820;2023-11-22T03:22:53;4.03;;;3.07;;
14141;SDS011;7151;52.246;4.820;2023-11-22T03:25:20;6.17;;;3.90;;
14141;SDS011;7151;52.246;4.820;2023-11-22T03:27:46;4.57;;;3.57;;
14141;SDS011;7151;52.246;4.820;2023-11-22T03:30:12;4.37;;;3.40;;
14141;SDS011;7151;52.246;4.820;2023-11-22T03:32:40;10.20;;;3.63;;
14141;SDS011;7151;52.246;4.820;2023-11-22T03:35:06;5.00;;;3.53;;
14141;SDS011;7151;52.246;4.820;2023-11-22T03:37:33;5.07;;;3.83;;
14141;SDS011;7151;52.246;4.820;2023-11-22T03:39:59;5.70;;;3.50;;
14141;SDS011;7151;52.246;4.820;2023-11-22T03:42:25;5.53;;;3.53;;
14141;SDS011;7151;52.246;4.820;2023-11-22T03:44:52;5.57;;;3.60;;
14141;SDS011;7151;52.246;4.820;2023-11-22T03:47:18;5.70;;;3.50;;
14141;SDS011;7151;52.246;4.820;2023-11-22T03:49:44;5.53;;;3.57;;
14141;SDS011;7151;52.246;4.820;2023-11-22T03:52:10;5.10;;;3.53;;
14141;SDS011;7151;52.246;4.820;2023-11-22T03:54:36;7.37;;;4.03;;
14141;SDS011;7151;52.246;4.820;2023-11-22T03:57:02;4.50;;;3.33;;
14141;SDS011;7151;52.246;4.820;2023-11-22T03:59:28;5.17;;;3.93;;
14141;SDS011;7151;52.246;4.820;2023-11-22T04:01:54;6.10;;;4.03;;
14141;SDS011;7151;52.246;4.820;2023-11-22T04:04:20;3.90;;;3.27;;
14141;SDS011;7151;52.246;4.820;2023-11-22T04:06:46;4.47;;;3.40;;
14141;SDS011;7151;52.246;4.820;2023-11-22T04:09:11;6.00;;;4.17;;
14141;SDS011;7151;52.246;4.820;2023-11-22T04:11:38;7.90;;;4.13;;
14141;SDS011;7151;52.246;4.820;2023-11-22T04:14:03;4.77;;;3.57;;
14141;SDS011;7151;52.246;4.820;2023-11-22T04:16:29;4.90;;;4.27;;
14141;SDS011;7151;52.246;4.820;2023-11-22T04:18:55;5.23;;;3.67;;
14141;SDS011;7151;52.246;4.820;2023-11-22T04:21:20;4.17;;;3.73;;
14141;SDS011;7151;52.246;4.820;2023-11-22T04:23:46;6.40;;;4.33;;
14141;SDS011;7151;52.246;4.820;2023-11-22T04:26:13;6.50;;;3.97;;
14141;SDS011;7151;52.246;4.820;2023-11-22T04:28:38;4.90;;;4.10;;
14141;SDS011;7151;52.246;4.820;2023-11-22T04:31:04;6.07;;;3.83;;
14141;SDS011;7151;52.246;4.820;2023-11-22T04:33:30;6.57;;;3.60;;
14141;SDS011;7151;52.246;4.820;2023-11-22T04:35:56;6.77;;;4.33;;
14141;SDS011;7151;52.246;4.820;2023-11-22T04:38:21;6.87;;;3.87;;
14141;SDS011;7151;52.246;4.820;2023-11-22T04:40:47;5.40;;;3.90;;
14141;SDS011;7151;52.246;4.820;2023-11-22T04:43:13;7.93;;;4.80;;
14141;SDS011;7151;52.246;4.820;2023-11-22T04:45:39;5.23;;;3.53;;
14141;SDS011;7151;52.246;4.820;2023-11-22T04:48:05;8.50;;;4.37;;
14141;SDS011;7151;52.246;4.820;2023-11-22T04:50:31;4.93;;;3.63;;
14141;SDS011;7151;52.246;4.820;2023-11-22T04:52:57;9.93;;;5.53;;
14141;SDS011;7151;52.246;4.820;2023-11-22T04:55:23;6.70;;;4.27;;
14141;SDS011;7151;52.246;4.820;2023-11-22T04:57:49;7.07;;;4.70;;
14141;SDS011;7151;52.246;4.820;2023-11-22T05:00:15;5.90;;;4.40;;
14141;SDS011;7151;52.246;4.820;2023-11-22T05:02:42;8.23;;;4.67;;
14141;SDS011;7151;52.246;4.820;2023-11-22T05:05:08;6.43;;;4.67;;
14141;SDS011;7151;52.246;4.820;2023-11-22T05:07:36;7.30;;;4.93;;
14141;SDS011;7151;52.246;4.820;2023-11-22T05:10:03;5.83;;;3.83;;
14141;SDS011;7151;52.246;4.820;2023-11-22T05:12:29;7.67;;;5.33;;
14141;SDS011;7151;52.246;4.820;2023-11-22T05:14:55;8.47;;;4.97;;
14141;SDS011;7151;52.246;4.820;2023-11-22T05:17:21;7.47;;;4.30;;
14141;SDS011;7151;52.246;4.820;2023-11-22T05:19:47;5.37;;;4.10;;
14141;SDS011;7151;52.246;4.820;2023-11-22T05:22:12;7.43;;;4.60;;
14141;SDS011;7151;52.246;4.820;2023-11-22T05:24:38;9.70;;;4.53;;
14141;SDS011;7151;52.246;4.820;2023-11-22T05:27:09;10.97;;;5.70;;
14141;SDS011;7151;52.246;4.820;2023-11-22T05:29:35;7.70;;;5.03;;
14141;SDS011;7151;52.246;4.820;2023-11-22T05:32:01;8.53;;;5.13;;
14141;SDS011;7151;52.246;4.820;2023-11-22T05:34:28;8.13;;;5.80;;
14141;SDS011;7151;52.246;4.820;2023-11-22T05:36:54;6.90;;;4.83;;
14141;SDS011;7151;52.246;4.820;2023-11-22T05:39:19;8.63;;;5.70;;
14141;SDS011;7151;52.246;4.820;2023-11-22T05:41:47;7.80;;;4.77;;
14141;SDS011;7151;52.246;4.820;2023-11-22T05:44:13;6.77;;;5.23;;
14141;SDS011;7151;52.246;4.820;2023-11-22T05:46:39;8.93;;;5.23;;
14141;SDS011;7151;52.246;4.820;2023-11-22T05:49:05;7.37;;;5.93;;
14141;SDS011;7151;52.246;4.820;2023-11-22T05:51:30;8.37;;;5.63;;
14141;SDS011;7151;52.246;4.820;2023-11-22T05:53:56;9.10;;;5.20;;
14141;SDS011;7151;52.246;4.820;2023-11-22T05:56:22;8.73;;;5.47;;
14141;SDS011;7151;52.246;4.820;2023-11-22T05:58:47;10.03;;;5.33;;
14141;SDS011;7151;52.246;4.820;2023-11-22T06:01:13;7.50;;;5.13;;
14141;SDS011;7151;52.246;4.820;2023-11-22T06:03:41;13.37;;;6.57;;
14141;SDS011;7151;52.246;4.820;2023-11-22T06:06:07;11.47;;;6.90;;
14141;SDS011;7151;52.246;4.820;2023-11-22T06:08:34;12.43;;;6.13;;
14141;SDS011;7151;52.246;4.820;2023-11-22T06:11:00;11.27;;;6.30;;
14141;SDS011;7151;52.246;4.820;2023-11-22T06:13:26;10.57;;;6.13;;
14141;SDS011;7151;52.246;4.820;2023-11-22T06:15:51;11.30;;;5.93;;
14141;SDS011;7151;52.246;4.820;2023-11-22T06:18:17;9.13;;;5.67;;
14141;SDS011;7151;52.246;4.820;2023-11-22T06:20:43;9.00;;;5.17;;
14141;SDS011;7151;52.246;4.820;2023-11-22T06:23:10;7.77;;;5.50;;
14141;SDS011;7151;52.246;4.820;2023-11-22T06:25:35;6.53;;;4.37;;
14141;SDS011;7151;52.246;4.820;2023-11-22T06:28:01;6.83;;;4.87;;
14141;SDS011;7151;52.246;4.820;2023-11-22T06:30:27;7.47;;;4.83;;
14141;SDS011;7151;52.246;4.820;2023-11-22T06:32:55;9.20;;;4.67;;
14141;SDS011;7151;52.246;4.820;2023-11-22T06:35:21;9.47;;;5.13;;
14141;SDS011;7151;52.246;4.820;2023-11-22T06:37:47;7.17;;;4.77;;
14141;SDS011;7151;52.246;4.820;2023-11-22T06:40:13;9.63;;;5.57;;
14141;SDS011;7151;52.246;4.820;2023-11-22T06:42:39;8.00;;;5.63;;
14141;SDS011;7151;52.246;4.820;2023-11-22T06:45:08;7.67;;;4.77;;
14141;SDS011;7151;52.246;4.820;2023-11-22T06:47:38;8.93;;;5.23;;
14141;SDS011;7151;52.246;4.820;2023-11-22T06:50:04;8.47;;;4.83;;
14141;SDS011;7151;52.246;4.820;2023-11-22T06:52:34;9.87;;;4.87;;
14141;SDS011;7151;52.246;4.820;2023-11-22T06:55:01;8.27;;;4.93;;
14141;SDS011;7151;52.246;4.820;2023-11-22T06:57:27;8.23;;;5.00;;
14141;SDS011;7151;52.246;4.820;2023-11-22T06:59:54;8.90;;;5.40;;
14141;SDS011;7151;52.246;4.820;2023-11-22T07:02:21;6.93;;;5.30;;
14141;SDS011;7151;52.246;4.820;2023-11-22T07:04:46;7.87;;;5.10;;
14141;SDS011;7151;52.246;4.820;2023-11-22T07:07:12;9.63;;;5.33;;
14141;SDS011;7151;52.246;4.820;2023-11-22T07:09:41;8.07;;;4.80;;
14141;SDS011;7151;52.246;4.820;2023-11-22T07:12:07;7.73;;;5.20;;
14141;SDS011;7151;52.246;4.820;2023-11-22T07:14:33;8.53;;;5.23;;
14141;SDS011;7151;52.246;4.820;2023-11-22T07:16:59;11.30;;;5.50;;
14141;SDS011;7151;52.246;4.820;2023-11-22T07:19:24;7.20;;;5.17;;
14141;SDS011;7151;52.246;4.820;2023-11-22T07:21:50;8.27;;;5.37;;
14141;SDS011;7151;52.246;4.820;2023-11-22T07:24:16;7.63;;;5.13;;
14141;SDS011;7151;52.246;4.820;2023-11-22T07:26:43;7.63;;;4.80;;
14141;SDS011;7151;52.246;4.820;2023-11-22T07:29:09;7.83;;;5.70;;
14141;SDS011;7151;52.246;4.820;2023-11-22T07:31:36;8.77;;;4.90;;
14141;SDS011;7151;52.246;4.820;2023-11-22T07:34:02;7.27;;;5.53;;
14141;SDS011;7151;52.246;4.820;2023-11-22T07:36:28;9.67;;;5.43;;
14141;SDS011;7151;52.246;4.820;2023-11-22T07:38:54;5.47;;;4.63;;
14141;SDS011;7151;52.246;4.820;2023-11-22T07:41:19;8.03;;;5.27;;
14141;SDS011;7151;52.246;4.820;2023-11-22T07:43:46;7.20;;;5.33;;
14141;SDS011;7151;52.246;4.820;2023-11-22T07:46:12;9.40;;;5.27;;
14141;SDS011;7151;52.246;4.820;2023-11-22T07:48:38;7.47;;;5.33;;
14141;SDS011;7151;52.246;4.820;2023-11-22T07:51:05;8.47;;;5.87;;
14141;SDS011;7151;52.246;4.820;2023-11-22T07:53:31;8.50;;;5.40;;
14141;SDS011;7151;52.246;4.820;2023-11-22T07:55:59;7.80;;;5.30;;
14141;SDS011;7151;52.246;4.820;2023-11-22T07:58:29;9.93;;;5.83;;
14141;SDS011;7151;52.246;4.820;2023-11-22T08:00:56;8.40;;;5.53;;
14141;SDS011;7151;52.246;4.820;2023-11-22T08:03:22;9.47;;;5.70;;
14141;SDS011;7151;52.246;4.820;2023-11-22T08:05:50;6.83;;;5.20;;
14141;SDS011;7151;52.246;4.820;2023-11-22T08:08:20;8.63;;;5.57;;
14141;SDS011;7151;52.246;4.820;2023-11-22T08:10:47;7.23;;;5.03;;
14141;SDS011;7151;52.246;4.820;2023-11-22T08:13:14;7.37;;;5.60;;
14141;SDS011;7151;52.246;4.820;2023-11-22T08:15:40;8.13;;;5.27;;
14141;SDS011;7151;52.246;4.820;2023-11-22T08:18:06;8.67;;;5.77;;
14141;SDS011;7151;52.246;4.820;2023-11-22T08:20:32;7.37;;;5.67;;
14141;SDS011;7151;52.246;4.820;2023-11-22T08:22:57;8.63;;;5.80;;
14141;SDS011;7151;52.246;4.820;2023-11-22T08:25:23;10.97;;;5.20;;
14141;SDS011;7151;52.246;4.820;2023-11-22T08:27:49;7.83;;;5.43;;
14141;SDS011;7151;52.246;4.820;2023-11-22T08:30:14;7.53;;;4.83;;
14141;SDS011;7151;52.246;4.820;2023-11-22T08:32:41;9.90;;;5.40;;
14141;SDS011;7151;52.246;4.820;2023-11-22T08:35:10;10.53;;;5.73;;
14141;SDS011;7151;52.246;4.820;2023-11-22T08:37:36;11.03;;;6.20;;
14141;SDS011;7151;52.246;4.820;2023-11-22T08:40:05;7.50;;;5.60;;
14141;SDS011;7151;52.246;4.820;2023-11-22T08:42:32;7.90;;;5.30;;
14141;SDS011;7151;52.246;4.820;2023-11-22T08:44:58;6.77;;;5.23;;
14141;SDS011;7151;52.246;4.820;2023-11-22T08:47:24;9.73;;;5.83;;
14141;SDS011;7151;52.246;4.820;2023-11-22T08:49:50;8.23;;;5.67;;
14141;SDS011;7151;52.246;4.820;2023-11-22T08:52:15;9.17;;;5.33;;
14141;SDS011;7151;52.246;4.820;2023-11-22T08:54:41;8.00;;;5.27;;
14141;SDS011;7151;52.246;4.820;2023-11-22T08:57:06;8.83;;;6.30;;
14141;SDS011;7151;52.246;4.820;2023-11-22T08:59:32;9.10;;;5.90;;
14141;SDS011;7151;52.246;4.820;2023-11-22T09:02:03;9.07;;;4.93;;
14141;SDS011;7151;52.246;4.820;2023-11-22T09:04:29;8.70;;;5.50;;
14141;SDS011;7151;52.246;4.820;2023-11-22T09:06:56;7.07;;;5.53;;
14141;SDS011;7151;52.246;4.820;2023-11-22T09:09:22;8.63;;;5.47;;
14141;SDS011;7151;52.246;4.820;2023-11-22T09:11:55;7.97;;;5.13;;
14141;SDS011;7151;52.246;4.820;2023-11-22T09:14:22;10.23;;;5.87;;
14141;SDS011;7151;52.246;4.820;2023-11-22T09:16:49;9.00;;;6.13;;
14141;SDS011;7151;52.246;4.820;2023-11-22T09:19:22;9.13;;;5.67;;
14141;SDS011;7151;52.246;4.820;2023-11-22T09:21:48;8.20;;;5.43;;
14141;SDS011;7151;52.246;4.820;2023-11-22T09:24:14;9.27;;;5.70;;
14141;SDS011;7151;52.246;4.820;2023-11-22T09:26:40;11.23;;;5.63;;
14141;SDS011;7151;52.246;4.820;2023-11-22T09:29:07;8.37;;;5.27;;
14141;SDS011;7151;52.246;4.820;2023-11-22T09:31:33;8.47;;;5.77;;
14141;SDS011;7151;52.246;4.820;2023-11-22T09:34:00;9.47;;;5.60;;
14141;SDS011;7151;52.246;4.820;2023-11-22T09:36:26;10.37;;;5.63;;
14141;SDS011;7151;52.246;4.820;2023-11-22T09:38:52;8.37;;;5.83;;
14141;SDS011;7151;52.246;4.820;2023-11-22T09:41:18;7.37;;;5.23;;
14141;SDS011;7151;52.246;4.820;2023-11-22T09:43:44;9.17;;;5.90;;
14141;SDS011;7151;52.246;4.820;2023-11-22T09:46:14;7.80;;;5.70;;
14141;SDS011;7151;52.246;4.820;2023-11-22T09:48:42;9.50;;;6.23;;
14141;SDS011;7151;52.246;4.820;2023-11-22T09:56:05;8.97;;;6.00;;
14141;SDS011;7151;52.246;4.820;2023-11-22T09:58:35;10.80;;;6.50;;
14141;SDS011;7151;52.246;4.820;2023-11-22T10:01:03;7.53;;;5.73;;
14141;SDS011;7151;52.246;4.820;2023-11-22T10:03:29;9.37;;;5.73;;
14141;SDS011;7151;52.246;4.820;2023-11-22T10:05:55;8.13;;;6.10;;
14141;SDS011;7151;52.246;4.820;2023-11-22T10:08:23;8.13;;;5.53;;
14141;SDS011;7151;52.246;4.820;2023-11-22T10:10:49;8.87;;;6.17;;
14141;SDS011;7151;52.246;4.820;2023-11-22T10:13:19;8.73;;;5.73;;
14141;SDS011;7151;52.246;4.820;2023-11-22T10:15:45;9.67;;;6.20;;
14141;SDS011;7151;52.246;4.820;2023-11-22T10:18:13;10.70;;;5.97;;
14141;SDS011;7151;52.246;4.820;2023-11-22T10:20:39;9.93;;;6.30;;
14141;SDS011;7151;52.246;4.820;2023-11-22T10:23:09;8.93;;;5.80;;
14141;SDS011;7151;52.246;4.820;2023-11-22T10:25:36;12.77;;;6.00;;
14141;SDS011;7151;52.246;4.820;2023-11-22T10:28:08;10.00;;;6.13;;
14141;SDS011;7151;52.246;4.820;2023-11-22T10:30:34;8.60;;;6.43;;
14141;SDS011;7151;52.246;4.820;2023-11-22T10:33:00;11.37;;;6.90;;
14141;SDS011;7151;52.246;4.820;2023-11-22T10:35:27;10.47;;;6.27;;
14141;SDS011;7151;52.246;4.820;2023-11-22T10:37:53;9.77;;;6.33;;
14141;SDS011;7151;52.246;4.820;2023-11-22T10:40:19;9.50;;;6.23;;
14141;SDS011;7151;52.246;4.820;2023-11-22T10:42:45;8.67;;;5.90;;
14141;SDS011;7151;52.246;4.820;2023-11-22T10:45:14;9.13;;;6.30;;
14141;SDS011;7151;52.246;4.820;2023-11-22T10:47:42;11.97;;;6.33;;
14141;SDS011;7151;52.246;4.820;2023-11-22T10:50:08;9.20;;;5.50;;
14141;SDS011;7151;52.246;4.820;2023-11-22T10:52:35;9.43;;;5.73;;
14141;SDS011;7151;52.246;4.820;2023-11-22T10:55:02;8.73;;;6.17;;
14141;SDS011;7151;52.246;4.820;2023-11-22T10:57:31;10.90;;;6.07;;
14141;SDS011;7151;52.246;4.820;2023-11-22T11:00:00;13.17;;;7.07;;
14141;SDS011;7151;52.246;4.820;2023-11-22T11:02:31;10.60;;;6.43;;
14141;SDS011;7151;52.246;4.820;2023-11-22T11:05:03;9.70;;;6.33;;
14141;SDS011;7151;52.246;4.820;2023-11-22T11:07:39;11.83;;;6.77;;
14141;SDS011;7151;52.246;4.820;2023-11-22T11:10:10;10.93;;;7.00;;
14141;SDS011;7151;52.246;4.820;2023-11-22T11:12:37;9.20;;;6.27;;
14141;SDS011;7151;52.246;4.820;2023-11-22T11:15:03;9.90;;;6.17;;
14141;SDS011;7151;52.246;4.820;2023-11-22T11:17:30;9.23;;;6.33;;
14141;SDS011;7151;52.246;4.820;2023-11-22T11:19:57;9.63;;;5.87;;
14141;SDS011;7151;52.246;4.820;2023-11-22T11:22:23;9.50;;;6.37;;
14141;SDS011;7151;52.246;4.820;2023-11-22T11:24:48;8.20;;;5.17;;
14141;SDS011;7151;52.246;4.820;2023-11-22T11:27:28;7.47;;;6.20;;
14141;SDS011;7151;52.246;4.820;2023-11-22T11:29:54;8.33;;;5.30;;
14141;SDS011;7151;52.246;4.820;2023-11-22T11:32:38;9.73;;;5.93;;
14141;SDS011;7151;52.246;4.820;2023-11-22T11:35:04;8.53;;;5.90;;
14141;SDS011;7151;52.246;4.820;2023-11-22T11:37:33;8.60;;;5.60;;
14141;SDS011;7151;52.246;4.820;2023-11-22T11:39:58;11.00;;;6.30;;
14141;SDS011;7151;52.246;4.820;2023-11-22T11:42:24;9.73;;;6.60;;
14141;SDS011;7151;52.246;4.820;2023-11-22T11:47:24;8.50;;;5.90;;
14141;SDS011;7151;52.246;4.820;2023-11-22T11:49:50;7.73;;;5.23;;
14141;SDS011;7151;52.246;4.820;2023-11-22T11:52:15;10.97;;;6.20;;
14141;SDS011;7151;52.246;4.820;2023-11-22T11:54:41;9.80;;;6.03;;
14141;SDS011;7151;52.246;4.820;2023-11-22T11:57:07;10.10;;;6.23;;
14141;SDS011;7151;52.246;4.820;2023-11-22T11:59:33;9.77;;;6.03;;
14141;SDS011;7151;52.246;4.820;2023-11-22T12:02:00;9.73;;;5.90;;
14141;SDS011;7151;52.246;4.820;2023-11-22T12:04:26;8.20;;;5.67;;
14141;SDS011;7151;52.246;4.820;2023-11-22T12:06:52;9.67;;;6.70;;
14141;SDS011;7151;52.246;4.820;2023-11-22T12:09:27;9.17;;;6.57;;
14141;SDS011;7151;52.246;4.820;2023-11-22T12:11:54;8.37;;;5.13;;
14141;SDS011;7151;52.246;4.820;2023-11-22T12:14:20;8.70;;;4.87;;
14141;SDS011;7151;52.246;4.820;2023-11-22T12:16:50;8.47;;;5.50;;
14141;SDS011;7151;52.246;4.820;2023-11-22T12:19:26;6.43;;;4.90;;
14141;SDS011;7151;52.246;4.820;2023-11-22T12:21:56;9.90;;;6.37;;
14141;SDS011;7151;52.246;4.820;2023-11-22T12:24:22;9.07;;;5.33;;
14141;SDS011;7151;52.246;4.820;2023-11-22T12:26:49;9.50;;;6.40;;
14141;SDS011;7151;52.246;4.820;2023-11-22T12:29:19;8.87;;;6.10;;
14141;SDS011;7151;52.246;4.820;2023-11-22T12:31:48;8.93;;;5.57;;
14141;SDS011;7151;52.246;4.820;2023-11-22T12:34:20;9.03;;;5.40;;
14141;SDS011;7151;52.246;4.820;2023-11-22T12:36:47;9.77;;;6.20;;
14141;SDS011;7151;52.246;4.820;2023-11-22T12:39:13;9.97;;;6.67;;
14141;SDS011;7151;52.246;4.820;2023-11-22T12:41:49;9.97;;;5.83;;
14141;SDS011;7151;52.246;4.820;2023-11-22T12:44:16;9.33;;;5.37;;
14141;SDS011;7151;52.246;4.820;2023-11-22T12:46:46;8.87;;;6.13;;
14141;SDS011;7151;52.246;4.820;2023-11-22T12:49:22;6.97;;;5.37;;
14141;SDS011;7151;52.246;4.820;2023-11-22T12:51:52;7.77;;;5.33;;
14141;SDS011;7151;52.246;4.820;2023-11-22T12:54:19;9.33;;;5.57;;
14141;SDS011;7151;52.246;4.820;2023-11-22T12:56:47;6.77;;;4.47;;
14141;SDS011;7151;52.246;4.820;2023-11-22T12:59:14;8.73;;;5.23;;
14141;SDS011;7151;52.246;4.820;2023-11-22T13:01:40;9.00;;;5.10;;
14141;SDS011;7151;52.246;4.820;2023-11-22T13:04:06;8.13;;;4.33;;
14141;SDS011;7151;52.246;4.820;2023-11-22T13:06:32;6.17;;;4.50;;
14141;SDS011;7151;52.246;4.820;2023-11-22T13:08:57;8.10;;;4.70;;
14141;SDS011;7151;52.246;4.820;2023-11-22T13:11:23;5.07;;;3.90;;
14141;SDS011;7151;52.246;4.820;2023-11-22T13:13:49;7.27;;;4.77;;
14141;SDS011;7151;52.246;4.820;2023-11-22T13:16:15;4.77;;;4.13;;
14141;SDS011;7151;52.246;4.820;2023-11-22T13:18:44;8.23;;;4.67;;
14141;SDS011;7151;52.246;4.820;2023-11-22T13:21:09;6.47;;;4.30;;
14141;SDS011;7151;52.246;4.820;2023-11-22T13:23:35;6.37;;;4.70;;
14141;SDS011;7151;52.246;4.820;2023-11-22T13:26:01;7.53;;;4.57;;
14141;SDS011;7151;52.246;4.820;2023-11-22T13:28:27;7.97;;;4.57;;
14141;SDS011;7151;52.246;4.820;2023-11-22T13:30:53;4.63;;;3.90;;
14141;SDS011;7151;52.246;4.820;2023-11-22T13:33:19;6.37;;;4.13;;
14141;SDS011;7151;52.246;4.820;2023-11-22T13:35:45;6.63;;;4.80;;
14141;SDS011;7151;52.246;4.820;2023-11-22T13:38:12;8.97;;;4.63;;
14141;SDS011;7151;52.246;4.820;2023-11-22T13:40:38;7.13;;;4.60;;
14141;SDS011;7151;52.246;4.820;2023-11-22T13:43:05;6.73;;;3.80;;
14141;SDS011;7151;52.246;4.820;2023-11-22T13:45:32;6.30;;;4.50;;
14141;SDS011;7151;52.246;4.820;2023-11-22T13:48:00;7.43;;;4.43;;
14141;SDS011;7151;52.246;4.820;2023-11-22T13:50:29;8.70;;;4.80;;
14141;SDS011;7151;52.246;4.820;2023-11-22T13:52:55;6.07;;;4.57;;
14141;SDS011;7151;52.246;4.820;2023-11-22T13:55:22;5.83;;;4.30;;
14141;SDS011;7151;52.246;4.820;2023-11-22T13:57:51;5.40;;;3.93;;
14141;SDS011;7151;52.246;4.820;2023-11-22T14:00:19;6.33;;;4.40;;
14141;SDS011;7151;52.246;4.820;2023-11-22T14:02:52;6.27;;;4.30;;
14141;SDS011;7151;52.246;4.820;2023-11-22T14:05:21;6.67;;;4.70;;
14141;SDS011;7151;52.246;4.820;2023-11-22T14:07:47;7.50;;;5.53;;
14141;SDS011;7151;52.246;4.820;2023-11-22T14:10:13;5.73;;;4.23;;
14141;SDS011;7151;52.246;4.820;2023-11-22T14:12:41;7.43;;;4.27;;
14141;SDS011;7151;52.246;4.820;2023-11-22T14:15:09;8.17;;;4.57;;
14141;SDS011;7151;52.246;4.820;2023-11-22T14:17:35;6.83;;;4.50;;
14141;SDS011;7151;52.246;4.820;2023-11-22T14:20:02;6.53;;;4.23;;
14141;SDS011;7151;52.246;4.820;2023-11-22T14:22:30;7.37;;;4.40;;
14141;SDS011;7151;52.246;4.820;2023-11-22T14:24:56;5.90;;;3.90;;
14141;SDS011;7151;52.246;4.820;2023-11-22T14:27:22;7.40;;;4.73;;
14141;SDS011;7151;52.246;4.820;2023-11-22T14:29:48;6.20;;;4.43;;
14141;SDS011;7151;52.246;4.820;2023-11-22T14:32:18;8.13;;;4.90;;
14141;SDS011;7151;52.246;4.820;2023-11-22T14:34:45;6.50;;;4.70;;
14141;SDS011;7151;52.246;4.820;2023-11-22T14:37:12;7.53;;;5.00;;
14141;SDS011;7151;52.246;4.820;2023-11-22T14:39:38;7.77;;;4.97;;
14141;SDS011;7151;52.246;4.820;2023-11-22T14:42:04;8.10;;;4.90;;
14141;SDS011;7151;52.246;4.820;2023-11-22T14:44:32;8.77;;;5.73;;
14141;SDS011;7151;52.246;4.820;2023-11-22T14:46:58;8.53;;;5.40;;
14141;SDS011;7151;52.246;4.820;2023-11-22T14:49:24;9.33;;;5.37;;
14141;SDS011;7151;52.246;4.820;2023-11-22T14:51:50;6.30;;;4.67;;
14141;SDS011;7151;52.246;4.820;2023-11-22T14:54:16;7.93;;;4.93;;
14141;SDS011;7151;52.246;4.820;2023-11-22T14:56:41;8.03;;;4.80;;
14141;SDS011;7151;52.246;4.820;2023-11-22T14:59:08;9.30;;;5.67;;
14141;SDS011;7151;52.246;4.820;2023-11-22T15:01:33;7.63;;;5.03;;
14141;SDS011;7151;52.246;4.820;2023-11-22T15:03:59;9.00;;;5.37;;